Time;durP1;ratioP1;P1;durP2;ratioP2;P2;SDS_P1;SDS_P2;PMS_P1;PMS_P2;Temp;Humidity;BMP_temperature;BMP_pressure;BME280_temperature;BME280_humidity;BME280_pressure;Samples;Min_cycle;Max_cycle;Signal;HPM_P1;HPM_P2
2022/11/30 00:00:26;;;;;;;23.95;17.15;;;8.20;99.90;;;;;;4907308;29;20595;-84
2022/11/30 00:02:54;;;;;;;24.52;16.00;;;8.20;99.90;;;;;;4915143;29;20044;-84
2022/11/30 00:05:21;;;;;;;25.17;17.50;;;8.20;99.90;;;;;;4902649;29;20065;-84
2022/11/30 00:07:47;;;;;;;25.02;17.50;;;8.10;99.90;;;;;;4915461;29;20059;-84
2022/11/30 00:10:12;;;;;;;24.92;17.25;;;8.10;99.90;;;;;;4914855;29;20047;-84
2022/11/30 00:12:41;;;;;;;25.65;17.55;;;8.10;99.90;;;;;;4915746;29;20131;-84
2022/11/30 00:15:09;;;;;;;22.10;16.10;;;8.10;99.90;;;;;;4916183;29;20056;-84
2022/11/30 00:17:35;;;;;;;24.63;17.00;;;8.10;99.90;;;;;;4916352;29;20052;-84
2022/11/30 00:20:00;;;;;;;24.98;16.88;;;8.10;99.90;;;;;;4912484;29;20051;-84
2022/11/30 00:22:26;;;;;;;24.13;16.83;;;8.10;99.90;;;;;;4914548;29;20051;-84
2022/11/30 00:24:52;;;;;;;26.17;17.30;;;8.10;99.90;;;;;;4915189;29;20052;-84
2022/11/30 00:27:17;;;;;;;24.92;16.88;;;8.10;99.90;;;;;;4914249;29;20051;-84
2022/11/30 00:29:43;;;;;;;23.60;16.85;;;8.00;99.90;;;;;;4915955;29;20423;-84
2022/11/30 00:32:08;;;;;;;25.05;18.17;;;8.10;99.90;;;;;;4913705;29;20048;-84
2022/11/30 00:34:34;;;;;;;23.77;17.27;;;8.00;99.90;;;;;;4907955;29;20044;-84
2022/11/30 00:36:59;;;;;;;26.33;17.73;;;8.00;99.90;;;;;;4915058;29;20075;-84
2022/11/30 00:39:25;;;;;;;23.80;16.83;;;8.00;99.90;;;;;;4916002;29;20572;-84
2022/11/30 00:41:50;;;;;;;24.60;17.73;;;7.90;99.90;;;;;;4916808;29;20095;-84
2022/11/30 00:44:16;;;;;;;25.25;17.88;;;7.90;99.90;;;;;;4918755;29;20047;-84
2022/11/30 00:46:42;;;;;;;25.92;17.45;;;7.90;99.90;;;;;;4918711;29;20091;-84
2022/11/30 00:49:07;;;;;;;26.35;18.02;;;7.90;99.90;;;;;;4902164;29;20485;-84
2022/11/30 00:51:33;;;;;;;25.65;17.08;;;7.90;99.90;;;;;;4917757;29;20047;-84
2022/11/30 00:53:58;;;;;;;24.55;17.88;;;7.90;99.90;;;;;;4918918;29;20036;-83
2022/11/30 00:56:24;;;;;;;23.63;16.73;;;7.80;99.90;;;;;;4915789;29;20048;-84
2022/11/30 00:58:50;;;;;;;24.60;16.70;;;7.80;99.90;;;;;;4918762;29;20100;-84
2022/11/30 01:01:15;;;;;;;24.42;16.77;;;7.70;99.90;;;;;;4911411;29;20133;-84
2022/11/30 01:03:41;;;;;;;24.98;16.90;;;7.70;99.90;;;;;;4917999;29;20139;-84
2022/11/30 01:06:08;;;;;;;24.95;17.08;;;7.70;99.90;;;;;;4916152;29;20052;-84
2022/11/30 01:08:34;;;;;;;22.25;16.23;;;7.70;99.90;;;;;;4913922;29;20488;-84
2022/11/30 01:11:26;;;;;;;24.13;16.80;;;7.70;99.90;;;;;;4969932;23;20058;-84
2022/11/30 01:13:54;;;;;;;25.38;16.85;;;7.60;99.90;;;;;;4915928;29;20060;-84
2022/11/30 01:16:26;;;;;;;26.55;17.88;;;7.60;99.90;;;;;;4917083;29;20056;-84
2022/11/30 01:18:52;;;;;;;23.10;16.48;;;7.60;99.90;;;;;;4917958;29;20091;-84
2022/11/30 01:21:20;;;;;;;24.65;17.02;;;7.60;99.90;;;;;;4917419;29;20146;-84
2022/11/30 01:23:47;;;;;;;22.30;15.95;;;7.60;99.90;;;;;;4917735;29;20036;-84
2022/11/30 01:26:12;;;;;;;22.25;16.48;;;7.60;99.90;;;;;;4917438;29;20048;-82
2022/11/30 01:28:39;;;;;;;25.13;17.73;;;7.60;99.90;;;;;;4917416;29;20059;-82
2022/11/30 01:31:08;;;;;;;26.33;17.25;;;7.50;99.90;;;;;;4916165;29;20131;-82
2022/11/30 01:33:34;;;;;;;24.80;17.33;;;7.50;99.90;;;;;;4919098;29;20048;-82
2022/11/30 01:36:21;;;;;;;24.27;17.25;;;7.50;99.90;;;;;;4917109;29;20048;-82
2022/11/30 01:38:52;;;;;;;21.83;15.98;;;7.50;99.90;;;;;;4918756;29;20102;-82
2022/11/30 01:41:22;;;;;;;21.45;15.20;;;7.50;99.90;;;;;;4912554;29;20043;-82
2022/11/30 01:43:56;;;;;;;21.52;15.60;;;7.50;99.90;;;;;;4916198;29;20061;-82
2022/11/30 01:46:30;;;;;;;24.60;16.63;;;7.40;99.90;;;;;;4916336;29;20066;-81
2022/11/30 01:49:25;;;;;;;23.42;15.55;;;7.50;99.90;;;;;;4902817;29;20069;-81
2022/11/30 01:51:58;;;;;;;26.70;18.48;;;7.40;99.90;;;;;;4912578;29;20060;-82
2022/11/30 01:54:35;;;;;;;22.77;16.37;;;7.40;99.90;;;;;;4916608;29;20122;-82
2022/11/30 01:57:12;;;;;;;24.85;17.33;;;7.40;99.90;;;;;;4917042;29;20812;-82
2022/11/30 01:59:38;;;;;;;21.98;15.43;;;7.40;99.90;;;;;;4916067;29;20044;-82
2022/11/30 02:02:04;;;;;;;22.92;15.80;;;7.40;99.90;;;;;;4916859;29;20047;-82
2022/11/30 02:04:33;;;;;;;22.50;16.05;;;7.40;99.90;;;;;;4917386;29;20082;-82
2022/11/30 02:07:01;;;;;;;22.42;16.10;;;7.40;99.90;;;;;;4918194;29;20396;-82
2022/11/30 02:09:30;;;;;;;24.77;17.05;;;7.40;99.90;;;;;;4916209;29;20139;-82
2022/11/30 02:11:57;;;;;;;24.98;17.15;;;7.40;99.90;;;;;;4916991;29;20044;-82
2022/11/30 02:14:44;;;;;;;21.80;15.90;;;7.40;99.90;;;;;;4916414;29;20052;-82
2022/11/30 02:17:45;;;;;;;26.45;16.17;;;7.40;99.90;;;;;;4916365;29;20103;-82
2022/11/30 02:20:23;;;;;;;25.08;16.92;;;7.40;99.90;;;;;;4915551;29;20179;-82
2022/11/30 02:23:17;;;;;;;22.45;15.73;;;7.30;99.90;;;;;;4911917;29;20048;-82
2022/11/30 02:25:58;;;;;;;25.77;16.48;;;7.40;99.90;;;;;;4915888;29;20091;-82
2022/11/30 02:29:01;;;;;;;23.40;15.95;;;7.30;99.90;;;;;;4916139;29;20044;-82
2022/11/30 02:31:47;;;;;;;23.97;17.40;;;7.30;99.90;;;;;;4916313;29;20420;-82
2022/11/30 02:34:16;;;;;;;27.05;17.35;;;7.30;99.90;;;;;;4915977;29;20681;-82
2022/11/30 02:36:44;;;;;;;27.17;17.83;;;7.30;99.90;;;;;;4915920;29;20193;-82
2022/11/30 02:39:10;;;;;;;28.48;19.73;;;7.30;99.90;;;;;;4915665;29;20080;-82
2022/11/30 02:41:38;;;;;;;25.13;18.42;;;7.40;99.90;;;;;;4915632;29;20052;-83
2022/11/30 02:44:04;;;;;;;24.38;17.55;;;7.40;99.90;;;;;;4917361;29;20100;-82
2022/11/30 02:46:38;;;;;;;29.65;21.45;;;7.40;99.90;;;;;;4916110;29;20052;-82
2022/11/30 02:49:29;;;;;;;23.50;16.27;;;7.40;99.90;;;;;;4916727;29;20048;-83
2022/11/30 02:51:55;;;;;;;26.75;17.98;;;7.40;99.90;;;;;;4916579;29;20058;-82
2022/11/30 02:54:21;;;;;;;28.05;18.67;;;7.40;99.90;;;;;;4900190;29;20036;-83
2022/11/30 02:56:47;;;;;;;28.70;19.05;;;7.40;99.90;;;;;;4916154;29;20101;-83
2022/11/30 02:59:13;;;;;;;27.58;19.25;;;7.40;99.90;;;;;;4914901;29;20072;-83
2022/11/30 03:01:39;;;;;;;28.40;20.42;;;7.40;99.90;;;;;;4914222;29;20048;-82
2022/11/30 03:04:04;;;;;;;28.38;18.98;;;7.40;99.90;;;;;;4916738;29;20123;-83
2022/11/30 03:06:30;;;;;;;25.67;17.77;;;7.40;99.90;;;;;;4916855;29;20044;-83
2022/11/30 03:08:55;;;;;;;24.42;17.35;;;7.40;99.90;;;;;;4914469;29;20068;-82
2022/11/30 03:11:21;;;;;;;23.75;16.55;;;7.40;99.90;;;;;;4915729;29;20092;-83
2022/11/30 03:13:46;;;;;;;24.35;16.15;;;7.40;99.90;;;;;;4915406;29;20400;-82
2022/11/30 03:16:12;;;;;;;21.75;16.23;;;7.40;99.90;;;;;;4915640;29;20407;-83
2022/11/30 03:18:39;;;;;;;25.85;17.60;;;7.40;99.90;;;;;;4916249;29;20051;-82
2022/11/30 03:21:10;;;;;;;22.73;17.20;;;7.40;99.90;;;;;;4916639;29;20122;-83
2022/11/30 03:23:36;;;;;;;25.15;17.05;;;7.40;99.90;;;;;;4915980;29;20056;-83
2022/11/30 03:26:04;;;;;;;22.48;16.58;;;7.40;99.90;;;;;;4916026;29;20052;-83
2022/11/30 03:28:29;;;;;;;24.92;17.75;;;7.40;99.90;;;;;;4915142;29;20507;-83
2022/11/30 03:30:56;;;;;;;26.17;18.15;;;7.30;99.90;;;;;;4915957;29;20048;-83
2022/11/30 03:33:22;;;;;;;25.58;18.08;;;7.40;99.90;;;;;;4916224;29;20044;-82
2022/11/30 03:35:48;;;;;;;25.02;18.23;;;7.40;99.90;;;;;;4915993;29;20071;-83
2022/11/30 03:38:13;;;;;;;24.02;16.92;;;7.40;99.90;;;;;;4916289;29;20484;-83
2022/11/30 03:40:39;;;;;;;27.35;17.80;;;7.40;99.90;;;;;;4915799;29;20040;-83
2022/11/30 03:43:04;;;;;;;25.80;18.15;;;7.30;99.90;;;;;;4916031;29;20055;-83
2022/11/30 03:45:30;;;;;;;27.13;18.33;;;7.40;99.90;;;;;;4915165;29;20456;-83
2022/11/30 03:47:56;;;;;;;25.42;18.10;;;7.40;99.90;;;;;;4914614;29;20139;-82
2022/11/30 03:50:21;;;;;;;27.58;19.17;;;7.40;99.90;;;;;;4913831;29;20472;-83
2022/11/30 03:52:47;;;;;;;29.23;19.45;;;7.40;99.90;;;;;;4916430;29;20036;-83
2022/11/30 03:55:13;;;;;;;35.55;23.20;;;7.40;99.90;;;;;;4916348;29;20067;-83
2022/11/30 03:57:38;;;;;;;25.00;17.77;;;7.40;99.90;;;;;;4915326;29;20477;-83
2022/11/30 04:00:05;;;;;;;27.17;18.45;;;7.40;99.90;;;;;;4915032;29;20135;-83
2022/11/30 04:02:31;;;;;;;28.63;18.20;;;7.40;99.90;;;;;;4915221;29;20115;-83
2022/11/30 04:04:57;;;;;;;28.00;19.15;;;7.40;99.90;;;;;;4914120;29;20553;-83
2022/11/30 04:07:22;;;;;;;28.85;19.85;;;7.40;99.90;;;;;;4915388;29;20036;-83
2022/11/30 04:09:48;;;;;;;28.85;19.48;;;7.40;99.90;;;;;;4914853;29;20059;-83
2022/11/30 04:12:14;;;;;;;28.90;19.75;;;7.40;99.90;;;;;;4915616;29;20056;-83
2022/11/30 04:14:39;;;;;;;23.73;17.75;;;7.40;99.90;;;;;;4917020;29;20043;-83
2022/11/30 04:17:05;;;;;;;25.77;18.92;;;7.40;99.90;;;;;;4918150;29;20115;-82
2022/11/30 04:19:31;;;;;;;30.50;19.75;;;7.40;99.90;;;;;;4917759;29;20124;-83
2022/11/30 04:21:57;;;;;;;27.02;18.30;;;7.30;99.90;;;;;;4918732;29;20067;-83
2022/11/30 04:24:23;;;;;;;26.95;17.75;;;7.40;99.90;;;;;;4918614;29;20048;-83
2022/11/30 04:26:49;;;;;;;24.15;17.98;;;7.40;99.90;;;;;;4918809;29;20039;-83
2022/11/30 04:29:14;;;;;;;26.10;17.52;;;7.30;99.90;;;;;;4917471;29;20044;-83
2022/11/30 04:31:40;;;;;;;25.85;17.70;;;7.30;99.90;;;;;;4919688;29;20075;-83
2022/11/30 04:34:06;;;;;;;27.83;18.95;;;7.30;99.90;;;;;;4919101;29;20032;-83
2022/11/30 04:36:34;;;;;;;27.92;18.25;;;7.30;99.90;;;;;;4918614;29;20082;-83
2022/11/30 04:39:00;;;;;;;24.20;18.50;;;7.30;99.90;;;;;;4919701;29;20096;-83
2022/11/30 04:41:25;;;;;;;25.60;18.48;;;7.30;99.90;;;;;;4917630;29;20044;-83
2022/11/30 04:43:54;;;;;;;28.25;19.42;;;7.40;99.90;;;;;;4894208;23;20057;-83
2022/11/30 04:46:31;;;;;;;25.27;18.08;;;7.40;99.90;;;;;;4880559;29;20057;-83
2022/11/30 04:49:03;;;;;;;27.23;19.38;;;7.40;99.90;;;;;;4900248;29;20041;-83
2022/11/30 04:51:34;;;;;;;28.83;18.50;;;7.30;99.90;;;;;;4881062;29;20045;-82
2022/11/30 04:54:05;;;;;;;25.40;17.63;;;7.40;99.90;;;;;;4879477;29;20375;-83
2022/11/30 04:56:40;;;;;;;27.98;18.95;;;7.40;99.90;;;;;;4881227;29;20104;-83
2022/11/30 04:59:11;;;;;;;27.88;19.17;;;7.30;99.90;;;;;;4881194;29;20127;-83
2022/11/30 05:01:40;;;;;;;30.80;20.45;;;7.40;99.90;;;;;;4879562;29;20486;-83
2022/11/30 05:04:09;;;;;;;27.35;20.20;;;7.40;99.90;;;;;;4877069;29;20113;-83
2022/11/30 05:06:34;;;;;;;26.50;19.15;;;7.40;99.90;;;;;;4880452;29;20063;-85
2022/11/30 05:09:00;;;;;;;29.88;20.60;;;7.40;99.90;;;;;;4880681;29;20041;-84
2022/11/30 05:11:25;;;;;;;29.25;19.45;;;7.40;99.90;;;;;;4880506;29;20397;-91
2022/11/30 05:14:04;;;;;;;27.42;19.48;;;7.40;99.90;;;;;;4880273;29;20451;-90
2022/11/30 05:16:39;;;;;;;28.02;20.27;;;7.40;99.90;;;;;;4879753;29;20057;-91
2022/11/30 05:19:20;;;;;;;29.30;19.13;;;7.40;99.90;;;;;;4886947;29;20473;-91
2022/11/30 05:24:39;;;;;;;29.35;19.90;;;7.40;99.90;;;;;;4916477;23;20064;-90
2022/11/30 05:27:11;;;;;;;30.13;19.17;;;7.40;99.90;;;;;;4880717;29;20049;-89
2022/11/30 05:29:46;;;;;;;26.98;18.73;;;7.40;99.90;;;;;;4880482;29;20489;-92
2022/11/30 05:32:20;;;;;;;30.23;19.98;;;7.40;99.90;;;;;;4883407;29;20041;-91
2022/11/30 05:34:52;;;;;;;27.35;18.98;;;7.40;99.90;;;;;;4880240;29;20053;-85
2022/11/30 05:37:29;;;;;;;33.17;21.65;;;7.40;99.90;;;;;;4879171;29;20100;-84
2022/11/30 05:40:00;;;;;;;31.58;21.52;;;7.40;99.90;;;;;;4881117;29;20166;-85
2022/11/30 05:42:37;;;;;;;30.67;20.58;;;7.40;99.90;;;;;;4880353;29;20086;-85
2022/11/30 05:45:10;;;;;;;26.75;18.63;;;7.40;99.90;;;;;;4880095;29;20067;-85
2022/11/30 05:47:45;;;;;;;28.85;19.95;;;7.40;99.90;;;;;;4879992;29;20049;-85
2022/11/30 05:50:10;;;;;;;30.92;21.23;;;7.40;99.90;;;;;;4880195;29;20097;-85
2022/11/30 05:52:45;;;;;;;26.63;18.70;;;7.40;99.90;;;;;;4880905;29;20409;-85
2022/11/30 05:55:11;;;;;;;28.95;20.60;;;7.40;99.90;;;;;;4879820;29;20144;-85
2022/11/30 05:57:37;;;;;;;29.65;19.73;;;7.40;99.90;;;;;;4878926;29;20183;-85
2022/11/30 06:00:05;;;;;;;30.70;19.17;;;7.40;99.90;;;;;;4879545;29;20116;-85
2022/11/30 06:02:30;;;;;;;37.35;22.08;;;7.40;99.90;;;;;;4879467;29;20053;-84
2022/11/30 06:04:56;;;;;;;30.00;19.70;;;7.40;99.90;;;;;;4879200;29;20508;-84
2022/11/30 06:07:22;;;;;;;29.98;20.25;;;7.40;99.90;;;;;;4879192;29;20105;-85
2022/11/30 06:09:47;;;;;;;27.80;19.27;;;7.40;99.90;;;;;;4879228;29;20088;-84
2022/11/30 06:12:13;;;;;;;28.15;18.55;;;7.40;99.90;;;;;;4879328;29;20127;-84
2022/11/30 06:14:38;;;;;;;37.78;21.25;;;7.40;99.90;;;;;;4880675;29;20098;-84
2022/11/30 06:17:04;;;;;;;33.25;20.70;;;7.40;99.90;;;;;;4879566;29;20116;-85
2022/11/30 06:19:29;;;;;;;35.92;19.98;;;7.40;99.90;;;;;;4879395;29;20041;-85
2022/11/30 06:21:55;;;;;;;37.55;20.83;;;7.40;99.90;;;;;;4879335;29;20049;-85
2022/11/30 06:24:21;;;;;;;33.85;20.90;;;7.40;99.90;;;;;;4879133;29;20052;-85
2022/11/30 06:26:46;;;;;;;34.88;21.75;;;7.40;99.90;;;;;;4878224;29;20517;-84
2022/11/30 06:29:12;;;;;;;33.90;20.52;;;7.40;99.90;;;;;;4880483;29;20041;-85
2022/11/30 06:31:37;;;;;;;39.00;22.48;;;7.40;99.90;;;;;;4878931;29;20416;-85
2022/11/30 06:34:03;;;;;;;40.70;21.88;;;7.40;99.90;;;;;;4879443;29;20052;-85
2022/11/30 06:36:30;;;;;;;41.15;22.17;;;7.30;99.90;;;;;;4879784;29;20053;-84
2022/11/30 06:38:55;;;;;;;31.70;19.85;;;7.40;99.90;;;;;;4878387;29;20052;-84
2022/11/30 06:41:21;;;;;;;31.70;19.83;;;7.30;99.90;;;;;;4878484;29;20123;-85
2022/11/30 06:43:47;;;;;;;33.55;21.27;;;7.40;99.90;;;;;;4880376;29;20470;-84
2022/11/30 06:46:12;;;;;;;41.60;22.50;;;7.40;99.90;;;;;;4878061;29;20049;-85
2022/11/30 06:48:38;;;;;;;37.90;21.35;;;7.30;99.90;;;;;;4878664;29;20049;-85
2022/11/30 06:51:08;;;;;;;31.63;20.38;;;7.40;99.90;;;;;;4878705;29;20128;-84
2022/11/30 06:53:33;;;;;;;36.30;20.58;;;7.40;99.90;;;;;;4878402;29;20056;-85
2022/11/30 06:56:04;;;;;;;35.45;20.98;;;7.40;99.90;;;;;;4879900;29;20049;-85
2022/11/30 06:58:31;;;;;;;38.42;21.58;;;7.30;99.90;;;;;;4879211;29;20564;-84
2022/11/30 07:00:56;;;;;;;37.13;21.45;;;7.30;99.90;;;;;;4893663;29;20131;-84
2022/11/30 07:03:22;;;;;;;36.08;20.42;;;7.40;99.90;;;;;;4878088;29;20085;-85
2022/11/30 07:05:48;;;;;;;36.25;20.98;;;7.40;99.90;;;;;;4878680;29;20063;-85
2022/11/30 07:08:16;;;;;;;39.55;20.50;;;7.40;99.90;;;;;;4878570;29;20505;-85
2022/11/30 07:10:43;;;;;;;40.78;20.67;;;7.40;99.90;;;;;;4879911;29;20131;-85
2022/11/30 07:13:10;;;;;;;36.55;19.88;;;7.40;99.90;;;;;;4878598;29;20398;-85
2022/11/30 07:15:37;;;;;;;38.55;21.05;;;7.40;99.90;;;;;;4877888;29;20040;-85
2022/11/30 07:18:02;;;;;;;36.58;19.38;;;7.40;99.90;;;;;;4879256;29;20052;-84
2022/11/30 07:20:28;;;;;;;36.20;20.55;;;7.30;99.90;;;;;;4879158;29;20049;-84
2022/11/30 07:26:04;;;;;;;33.10;19.80;;;7.40;99.90;;;;;;4875652;29;20524;-85
2022/11/30 07:28:26;;;;;;;35.78;19.95;;;7.30;99.90;;;;;;4878115;29;20049;-85
2022/11/30 07:30:52;;;;;;;32.25;18.05;;;7.40;99.90;;;;;;4879190;29;20482;-85
2022/11/30 07:33:17;;;;;;;31.00;18.55;;;7.30;99.90;;;;;;4879079;29;20051;-84
2022/11/30 07:35:43;;;;;;;32.83;19.45;;;7.40;99.90;;;;;;4877365;29;20045;-84
2022/11/30 07:38:09;;;;;;;30.77;18.17;;;7.40;99.90;;;;;;4878594;29;20045;-85
2022/11/30 07:40:34;;;;;;;30.27;17.85;;;7.40;99.90;;;;;;4878365;29;20490;-85
2022/11/30 07:43:00;;;;;;;31.27;18.85;;;7.40;99.90;;;;;;4877412;29;20088;-85
2022/11/30 07:45:25;;;;;;;30.65;19.10;;;7.40;99.90;;;;;;4879211;29;20049;-84
2022/11/30 07:47:51;;;;;;;29.48;17.33;;;7.30;99.90;;;;;;4880118;29;20053;-84
2022/11/30 07:50:16;;;;;;;31.15;18.00;;;7.40;99.90;;;;;;4880870;29;20045;-84
2022/11/30 07:52:42;;;;;;;30.58;17.05;;;7.40;99.90;;;;;;4881762;29;20045;-85
2022/11/30 07:55:08;;;;;;;31.70;18.40;;;7.40;99.90;;;;;;4882216;29;20045;-85
2022/11/30 07:57:33;;;;;;;30.60;17.83;;;7.40;99.90;;;;;;4881296;29;20145;-88
2022/11/30 07:59:59;;;;;;;32.30;18.38;;;7.40;99.90;;;;;;4883359;29;20085;-85
2022/11/30 08:02:25;;;;;;;30.02;17.73;;;7.40;99.90;;;;;;4882522;29;20393;-84
2022/11/30 08:04:51;;;;;;;28.30;17.48;;;7.40;99.90;;;;;;4882360;29;20076;-86
2022/11/30 08:07:16;;;;;;;28.65;16.83;;;7.40;99.90;;;;;;4882455;29;20490;-86
2022/11/30 08:09:43;;;;;;;27.98;17.17;;;7.30;99.90;;;;;;4881033;29;20045;-85
2022/11/30 08:12:09;;;;;;;28.17;17.83;;;7.40;99.90;;;;;;4880924;29;20488;-85
2022/11/30 08:14:35;;;;;;;25.35;15.15;;;7.40;99.90;;;;;;4882862;29;20041;-84
2022/11/30 08:17:01;;;;;;;25.65;16.02;;;7.40;99.90;;;;;;4881477;29;20117;-84
2022/11/30 08:19:26;;;;;;;26.13;15.63;;;7.30;99.90;;;;;;4880462;29;20053;-83
2022/11/30 08:21:52;;;;;;;28.88;16.90;;;7.30;99.90;;;;;;4881387;29;20087;-83
2022/11/30 08:24:17;;;;;;;27.42;16.58;;;7.30;99.90;;;;;;4880281;29;20049;-85
2022/11/30 08:26:43;;;;;;;29.55;17.23;;;7.30;99.90;;;;;;4882419;29;20501;-84
2022/11/30 08:29:10;;;;;;;25.48;15.93;;;7.30;99.90;;;;;;4880494;29;20044;-84
2022/11/30 08:31:36;;;;;;;27.85;15.77;;;7.30;99.90;;;;;;4880770;29;20132;-84
2022/11/30 08:34:04;;;;;;;25.40;14.75;;;7.40;99.90;;;;;;4882976;29;20041;-85
2022/11/30 08:36:30;;;;;;;28.23;16.25;;;7.30;99.90;;;;;;4880871;29;20123;-84
2022/11/30 08:38:57;;;;;;;24.42;15.27;;;7.30;99.90;;;;;;4881677;29;20037;-83
2022/11/30 08:41:23;;;;;;;24.38;14.93;;;7.30;99.90;;;;;;4881236;29;20133;-84
2022/11/30 08:43:50;;;;;;;24.80;15.10;;;7.30;99.90;;;;;;4880649;29;20409;-84
2022/11/30 08:46:18;;;;;;;24.73;14.35;;;7.30;99.90;;;;;;4880917;29;20410;-84
2022/11/30 08:48:43;;;;;;;22.92;14.50;;;7.30;99.90;;;;;;4882101;29;20049;-84
2022/11/30 08:51:11;;;;;;;23.58;14.35;;;7.30;99.90;;;;;;4880204;29;20045;-84
2022/11/30 08:53:37;;;;;;;22.02;14.60;;;7.30;99.90;;;;;;4881211;29;20081;-85
2022/11/30 08:56:09;;;;;;;21.42;13.90;;;7.30;99.90;;;;;;4882195;29;20088;-84
2022/11/30 08:58:36;;;;;;;21.48;13.63;;;7.30;99.90;;;;;;4881785;29;20052;-85
2022/11/30 09:01:20;;;;;;;20.55;12.95;;;7.30;99.90;;;;;;4879294;29;20054;-85
2022/11/30 09:03:49;;;;;;;20.15;13.52;;;7.30;99.90;;;;;;4882059;29;20049;-85
2022/11/30 09:06:20;;;;;;;23.15;14.30;;;7.30;99.90;;;;;;4880740;29;20463;-84
2022/11/30 09:08:48;;;;;;;20.75;14.80;;;7.30;99.90;;;;;;4879868;29;20131;-84
2022/11/30 09:11:17;;;;;;;18.95;12.70;;;7.30;99.90;;;;;;4880507;29;20516;-83
2022/11/30 09:13:44;;;;;;;22.45;14.43;;;7.30;99.90;;;;;;4881002;29;20048;-84
2022/11/30 09:16:10;;;;;;;21.35;13.70;;;7.30;99.90;;;;;;4880384;29;20071;-83
2022/11/30 09:18:36;;;;;;;24.95;14.23;;;7.40;99.90;;;;;;4881812;29;20037;-84
2022/11/30 09:21:09;;;;;;;21.13;13.88;;;7.40;99.90;;;;;;4879985;29;20037;-83
2022/11/30 09:23:36;;;;;;;21.38;13.35;;;7.40;99.90;;;;;;4882123;29;20061;-84
2022/11/30 09:26:05;;;;;;;21.05;13.50;;;7.40;99.90;;;;;;4881052;29;20434;-84
2022/11/30 09:28:31;;;;;;;22.40;14.38;;;7.40;99.90;;;;;;4879818;29;20045;-84
2022/11/30 09:31:16;;;;;;;19.02;12.85;;;7.40;99.90;;;;;;4881808;29;20045;-84
2022/11/30 09:33:42;;;;;;;20.73;13.23;;;7.40;99.90;;;;;;4879999;29;20053;-87
2022/11/30 09:36:14;;;;;;;19.05;13.00;;;7.40;99.90;;;;;;4879234;29;20049;-88
2022/11/30 09:38:41;;;;;;;19.92;13.27;;;7.40;99.90;;;;;;4880227;29;20045;-87
2022/11/30 09:41:43;;;;;;;20.45;13.85;;;7.40;99.90;;;;;;4879896;29;20482;-87
2022/11/30 09:44:53;;;;;;;22.80;14.82;;;7.40;99.90;;;;;;4880908;29;20387;-93
2022/11/30 11:38:23;;;;;;;26.70;17.15;;;7.40;99.90;;;;;;5555238;23;20052;-88
2022/11/30 11:41:09;;;;;;;27.48;16.67;;;7.50;99.90;;;;;;4897546;29;20077;-82
2022/11/30 11:43:55;;;;;;;31.92;20.52;;;7.50;99.90;;;;;;4879168;29;20059;-82
2022/11/30 11:46:21;;;;;;;26.35;16.95;;;7.50;99.90;;;;;;4878230;29;20495;-82
2022/11/30 11:49:01;;;;;;;34.30;21.10;;;7.60;99.90;;;;;;4877728;29;20500;-83
2022/11/30 11:51:38;;;;;;;34.28;21.35;;;7.60;99.90;;;;;;4878213;29;20416;-84
2022/11/30 11:54:32;;;;;;;27.95;19.05;;;7.60;99.90;;;;;;4878524;29;20080;-84
2022/11/30 11:56:58;;;;;;;35.43;22.27;;;7.60;99.90;;;;;;4887620;29;20052;-85
2022/11/30 11:59:48;;;;;;;29.25;18.77;;;7.60;99.90;;;;;;4897856;29;20052;-86
2022/11/30 12:02:33;;;;;;;28.85;18.77;;;7.60;99.90;;;;;;4897522;29;20051;-84
2022/11/30 12:05:07;;;;;;;32.70;21.25;;;7.60;99.90;;;;;;4896621;29;20045;-86
2022/11/30 12:07:49;;;;;;;28.55;18.20;;;7.60;99.90;;;;;;4893984;29;20059;-84
2022/11/30 12:10:43;;;;;;;30.05;19.08;;;7.60;99.90;;;;;;4896049;29;20128;-84
2022/11/30 12:13:27;;;;;;;29.80;18.85;;;7.70;99.90;;;;;;4896304;29;20045;-84
2022/11/30 12:16:11;;;;;;;28.25;18.67;;;7.70;99.90;;;;;;4878401;29;20045;-84
2022/11/30 12:18:42;;;;;;;27.48;18.67;;;7.70;99.90;;;;;;4888987;29;20044;-83
2022/11/30 12:21:23;;;;;;;29.98;19.83;;;7.70;99.90;;;;;;4895945;29;20401;-84
2022/11/30 12:24:30;;;;;;;28.73;18.60;;;7.70;99.90;;;;;;4895449;29;20143;-84
2022/11/30 12:27:17;;;;;;;28.55;19.17;;;7.70;99.90;;;;;;4881151;29;20164;-84
2022/11/30 12:29:49;;;;;;;27.63;18.27;;;7.70;99.90;;;;;;4896057;29;20408;-83
2022/11/30 12:32:28;;;;;;;28.40;18.38;;;7.70;99.90;;;;;;4889805;29;20037;-83
2022/11/30 12:34:54;;;;;;;28.75;19.15;;;7.70;99.90;;;;;;4912186;29;20048;-84
2022/11/30 12:37:41;;;;;;;26.77;18.00;;;7.70;99.90;;;;;;4902975;29;20505;-85
2022/11/30 12:40:23;;;;;;;28.58;18.05;;;7.70;99.90;;;;;;4916974;29;20052;-84
2022/11/30 12:43:00;;;;;;;26.95;17.67;;;7.70;99.90;;;;;;4900726;29;20157;-84
2022/11/30 12:45:42;;;;;;;28.95;18.70;;;7.70;99.90;;;;;;4898294;29;20040;-85
2022/11/30 12:48:31;;;;;;;28.15;18.80;;;7.70;99.90;;;;;;4899075;29;20139;-84
2022/11/30 12:51:19;;;;;;;27.00;18.10;;;7.70;99.90;;;;;;4893733;29;20048;-84
2022/11/30 12:53:58;;;;;;;28.88;18.38;;;7.70;99.90;;;;;;4898381;29;20040;-84
2022/11/30 12:56:54;;;;;;;26.67;18.10;;;7.70;99.90;;;;;;4900113;29;20040;-84
2022/11/30 12:59:23;;;;;;;28.80;18.00;;;7.70;99.90;;;;;;4891668;29;20052;-84
2022/11/30 13:02:25;;;;;;;27.35;19.17;;;7.70;99.90;;;;;;4914155;29;20141;-84
2022/11/30 13:05:21;;;;;;;31.00;21.25;;;7.70;99.90;;;;;;4913578;29;20048;-84
2022/11/30 13:08:22;;;;;;;29.15;18.77;;;7.70;99.90;;;;;;4896423;29;20592;-84
2022/11/30 13:10:56;;;;;;;29.15;20.15;;;7.70;99.90;;;;;;4887058;29;20381;-84
2022/11/30 13:13:24;;;;;;;;;;;7.70;99.90;;;;;;4898182;29;20045;-84
2022/11/30 13:15:50;;;;;;;27.98;19.42;;;7.70;99.90;;;;;;4900091;29;19923;-84
2022/11/30 13:18:19;;;;;;;32.40;20.33;;;7.70;99.90;;;;;;4909083;29;20052;-84
2022/11/30 13:21:00;;;;;;;29.05;19.33;;;7.70;99.90;;;;;;4901205;29;20040;-84
2022/11/30 13:23:38;;;;;;;31.17;20.95;;;7.70;99.90;;;;;;4910710;29;20048;-84
2022/11/30 13:26:16;;;;;;;28.70;18.92;;;7.70;99.90;;;;;;4909836;29;20043;-85
2022/11/30 13:28:56;;;;;;;27.80;19.60;;;7.70;99.90;;;;;;4895054;29;20041;-87
2022/11/30 13:31:34;;;;;;;31.02;21.38;;;7.80;99.90;;;;;;4900961;29;20044;-85
2022/11/30 13:34:01;;;;;;;30.65;20.67;;;7.80;99.90;;;;;;4902538;29;20059;-86
2022/11/30 13:36:39;;;;;;;35.55;22.40;;;7.70;99.90;;;;;;4898988;29;20040;-86
2022/11/30 13:39:14;;;;;;;32.45;21.98;;;7.80;99.90;;;;;;4896071;29;20057;-85
2022/11/30 13:41:46;;;;;;;30.33;21.27;;;7.80;99.90;;;;;;4891585;29;20361;-85
2022/11/30 13:44:23;;;;;;;33.25;21.58;;;7.80;99.90;;;;;;4898207;29;20044;-85
2022/11/30 13:46:50;;;;;;;33.08;21.88;;;7.80;99.90;;;;;;4894066;29;20086;-85
2022/11/30 13:49:27;;;;;;;31.55;21.50;;;7.80;99.90;;;;;;4900593;29;20037;-86
2022/11/30 13:51:53;;;;;;;37.85;22.75;;;7.80;99.90;;;;;;4898137;29;20389;-84
2022/11/30 13:54:44;;;;;;;33.72;22.27;;;7.80;99.90;;;;;;4897994;29;20075;-87
2022/11/30 13:57:28;;;;;;;34.47;23.20;;;7.80;99.90;;;;;;4898646;29;20076;-86
2022/11/30 13:59:59;;;;;;;33.00;22.52;;;7.80;99.90;;;;;;4899644;29;20488;-84
2022/11/30 14:02:42;;;;;;;36.55;23.48;;;7.80;99.90;;;;;;4905140;29;20048;-85
2022/11/30 14:05:31;;;;;;;34.07;24.03;;;7.80;99.90;;;;;;4885783;29;20045;-85
2022/11/30 14:07:59;;;;;;;32.90;22.95;;;7.80;99.90;;;;;;4905959;29;20056;-85
2022/11/30 14:10:32;;;;;;;36.92;23.80;;;7.80;99.90;;;;;;4912598;29;20087;-84
2022/11/30 14:13:00;;;;;;;37.65;25.00;;;7.80;99.90;;;;;;4912448;29;20120;-83
2022/11/30 14:15:37;;;;;;;34.28;22.92;;;7.80;99.90;;;;;;4907595;29;20140;-83
2022/11/30 14:18:06;;;;;;;35.92;23.10;;;7.80;99.90;;;;;;4896679;29;20040;-84
2022/11/30 14:20:52;;;;;;;34.78;23.15;;;7.80;99.90;;;;;;4897543;29;20449;-84
2022/11/30 14:23:30;;;;;;;32.88;22.30;;;7.80;99.90;;;;;;4896912;29;20402;-84
2022/11/30 14:26:03;;;;;;;36.67;23.85;;;7.80;99.90;;;;;;4898283;29;20728;-83
2022/11/30 14:28:39;;;;;;;36.33;23.63;;;7.80;99.90;;;;;;4897372;29;20044;-83
2022/11/30 14:31:07;;;;;;;32.67;21.95;;;7.80;99.90;;;;;;4896903;29;20510;-84
2022/11/30 14:33:53;;;;;;;39.65;24.48;;;7.80;99.90;;;;;;4894392;29;20386;-85
2022/11/30 14:36:20;;;;;;;34.63;23.35;;;7.80;99.90;;;;;;4898312;29;20052;-85
2022/11/30 14:38:46;;;;;;;36.60;22.50;;;7.80;99.90;;;;;;4896865;29;20172;-85
2022/11/30 14:41:24;;;;;;;33.47;23.30;;;7.80;99.90;;;;;;4896553;29;20133;-85
2022/11/30 14:44:12;;;;;;;32.67;23.05;;;7.80;99.90;;;;;;4897424;29;20115;-84
2022/11/30 14:46:38;;;;;;;35.33;23.52;;;7.80;99.90;;;;;;4899263;29;20052;-84
2022/11/30 14:49:04;;;;;;;37.40;24.17;;;7.80;99.90;;;;;;4896946;29;20040;-84
2022/11/30 14:51:30;;;;;;;36.83;24.88;;;7.70;99.90;;;;;;4896469;29;20049;-84
2022/11/30 14:54:22;;;;;;;35.80;23.98;;;7.80;99.90;;;;;;4897215;29;20041;-84